sensor_id;sensor_type;location;lat;lon;timestamp;temperature;humidity
33988;DHT22;37428;53.580;-1.666;2023-04-01T00:00:20;6.70;99.90
33988;DHT22;37428;53.580;-1.666;2023-04-01T00:03:23;6.70;99.90
33988;DHT22;37428;53.580;-1.666;2023-04-01T00:06:26;6.70;99.90
33988;DHT22;37428;53.580;-1.666;2023-04-01T00:09:29;6.70;99.90
33988;DHT22;37428;53.580;-1.666;2023-04-01T00:12:31;6.70;99.90
33988;DHT22;37428;53.580;-1.666;2023-04-01T00:15:34;6.60;99.90
33988;DHT22;37428;53.580;-1.666;2023-04-01T00:18:36;6.50;99.90
33988;DHT22;37428;53.580;-1.666;2023-04-01T00:21:38;6.50;99.90
33988;DHT22;37428;53.580;-1.666;2023-04-01T00:24:42;6.50;99.90
33988;DHT22;37428;53.580;-1.666;2023-04-01T00:27:44;6.60;99.90
33988;DHT22;37428;53.580;-1.666;2023-04-01T00:30:47;6.50;99.90
33988;DHT22;37428;53.580;-1.666;2023-04-01T00:33:49;6.50;99.90
33988;DHT22;37428;53.580;-1.666;2023-04-01T00:36:53;6.50;99.90
33988;DHT22;37428;53.580;-1.666;2023-04-01T00:39:56;6.50;99.90
33988;DHT22;37428;53.580;-1.666;2023-04-01T00:43:00;6.40;99.80
33988;DHT22;37428;53.580;-1.666;2023-04-01T00:46:02;6.40;99.90
33988;DHT22;37428;53.580;-1.666;2023-04-01T00:49:04;6.40;99.90
33988;DHT22;37428;53.580;-1.666;2023-04-01T00:52:08;6.40;99.90
33988;DHT22;37428;53.580;-1.666;2023-04-01T00:55:14;6.40;99.90
33988;DHT22;37428;53.580;-1.666;2023-04-01T00:58:21;6.40;99.90
33988;DHT22;37428;53.580;-1.666;2023-04-01T01:01:24;6.30;99.70
33988;DHT22;37428;53.580;-1.666;2023-04-01T01:04:28;6.30;99.70
33988;DHT22;37428;53.580;-1.666;2023-04-01T01:07:38;6.30;99.70
33988;DHT22;37428;53.580;-1.666;2023-04-01T01:10:48;6.30;99.80
33988;DHT22;37428;53.580;-1.666;2023-04-01T01:13:58;6.30;99.90
33988;DHT22;37428;53.580;-1.666;2023-04-01T01:17:09;6.30;99.70
33988;DHT22;37428;53.580;-1.666;2023-04-01T01:20:42;6.30;99.90
33988;DHT22;37428;53.580;-1.666;2023-04-01T01:24:02;6.30;99.60
33988;DHT22;37428;53.580;-1.666;2023-04-01T01:27:11;6.30;99.20
33988;DHT22;37428;53.580;-1.666;2023-04-01T01:30:29;6.40;99.30
33988;DHT22;37428;53.580;-1.666;2023-04-01T01:33:45;6.30;99.20
33988;DHT22;37428;53.580;-1.666;2023-04-01T01:36:55;6.30;99.30
33988;DHT22;37428;53.580;-1.666;2023-04-01T01:40:02;6.30;98.80
33988;DHT22;37428;53.580;-1.666;2023-04-01T01:43:09;6.30;97.90
33988;DHT22;37428;53.580;-1.666;2023-04-01T01:46:15;6.30;98.10
33988;DHT22;37428;53.580;-1.666;2023-04-01T01:49:19;6.20;97.70
33988;DHT22;37428;53.580;-1.666;2023-04-01T01:52:24;6.30;98.10
33988;DHT22;37428;53.580;-1.666;2023-04-01T01:55:28;6.30;98.10
33988;DHT22;37428;53.580;-1.666;2023-04-01T01:58:33;6.30;97.80
33988;DHT22;37428;53.580;-1.666;2023-04-01T02:01:43;6.40;97.90
33988;DHT22;37428;53.580;-1.666;2023-04-01T02:04:47;6.30;97.70
33988;DHT22;37428;53.580;-1.666;2023-04-01T02:07:51;6.30;98.20
33988;DHT22;37428;53.580;-1.666;2023-04-01T02:11:01;6.30;97.50
33988;DHT22;37428;53.580;-1.666;2023-04-01T02:14:06;6.20;97.50
33988;DHT22;37428;53.580;-1.666;2023-04-01T02:17:11;6.20;98.00
33988;DHT22;37428;53.580;-1.666;2023-04-01T02:20:18;6.20;97.50
33988;DHT22;37428;53.580;-1.666;2023-04-01T02:23:23;6.20;98.00
33988;DHT22;37428;53.580;-1.666;2023-04-01T02:26:25;6.20;97.80
33988;DHT22;37428;53.580;-1.666;2023-04-01T02:29:28;6.10;97.50
33988;DHT22;37428;53.580;-1.666;2023-04-01T02:32:32;6.20;97.60
33988;DHT22;37428;53.580;-1.666;2023-04-01T02:35:36;6.20;97.60
33988;DHT22;37428;53.580;-1.666;2023-04-01T02:38:41;6.10;97.80
33988;DHT22;37428;53.580;-1.666;2023-04-01T02:41:45;6.10;98.00
33988;DHT22;37428;53.580;-1.666;2023-04-01T02:44:47;6.00;97.70
33988;DHT22;37428;53.580;-1.666;2023-04-01T02:47:50;6.00;97.40
33988;DHT22;37428;53.580;-1.666;2023-04-01T02:50:52;6.00;96.90
33988;DHT22;37428;53.580;-1.666;2023-04-01T02:53:55;6.00;97.30
33988;DHT22;37428;53.580;-1.666;2023-04-01T02:56:58;5.90;97.20
33988;DHT22;37428;53.580;-1.666;2023-04-01T03:00:01;5.90;97.00
33988;DHT22;37428;53.580;-1.666;2023-04-01T03:03:04;5.80;97.40
33988;DHT22;37428;53.580;-1.666;2023-04-01T03:06:07;5.70;97.90
33988;DHT22;37428;53.580;-1.666;2023-04-01T03:09:11;5.70;98.60
33988;DHT22;37428;53.580;-1.666;2023-04-01T03:12:13;5.70;99.00
33988;DHT22;37428;53.580;-1.666;2023-04-01T03:15:15;5.70;98.80
33988;DHT22;37428;53.580;-1.666;2023-04-01T03:18:17;5.70;99.00
33988;DHT22;37428;53.580;-1.666;2023-04-01T03:21:21;5.70;98.70
33988;DHT22;37428;53.580;-1.666;2023-04-01T03:24:25;5.80;98.50
33988;DHT22;37428;53.580;-1.666;2023-04-01T03:27:27;5.90;98.20
33988;DHT22;37428;53.580;-1.666;2023-04-01T03:30:29;5.90;97.40
33988;DHT22;37428;53.580;-1.666;2023-04-01T03:33:32;5.80;96.80
33988;DHT22;37428;53.580;-1.666;2023-04-01T03:36:34;5.80;96.60
33988;DHT22;37428;53.580;-1.666;2023-04-01T03:39:38;5.80;96.80
33988;DHT22;37428;53.580;-1.666;2023-04-01T03:42:40;5.80;96.70
33988;DHT22;37428;53.580;-1.666;2023-04-01T03:45:44;5.80;96.70
33988;DHT22;37428;53.580;-1.666;2023-04-01T03:48:46;5.80;97.00
33988;DHT22;37428;53.580;-1.666;2023-04-01T03:51:48;5.70;97.30
33988;DHT22;37428;53.580;-1.666;2023-04-01T03:54:52;5.80;97.40
33988;DHT22;37428;53.580;-1.666;2023-04-01T03:57:54;5.80;97.20
33988;DHT22;37428;53.580;-1.666;2023-04-01T04:00:56;5.70;97.20
33988;DHT22;37428;53.580;-1.666;2023-04-01T04:03:58;5.70;96.80
33988;DHT22;37428;53.580;-1.666;2023-04-01T04:07:00;5.70;97.00
33988;DHT22;37428;53.580;-1.666;2023-04-01T04:10:05;5.70;97.00
33988;DHT22;37428;53.580;-1.666;2023-04-01T04:13:07;5.50;96.70
33988;DHT22;37428;53.580;-1.666;2023-04-01T04:16:10;5.50;97.00
33988;DHT22;37428;53.580;-1.666;2023-04-01T04:19:12;5.50;97.00
33988;DHT22;37428;53.580;-1.666;2023-04-01T04:22:14;5.50;97.00
33988;DHT22;37428;53.580;-1.666;2023-04-01T04:25:18;5.50;97.10
33988;DHT22;37428;53.580;-1.666;2023-04-01T04:28:20;5.50;97.00
33988;DHT22;37428;53.580;-1.666;2023-04-01T04:31:23;5.60;96.60
33988;DHT22;37428;53.580;-1.666;2023-04-01T04:34:26;5.60;95.50
33988;DHT22;37428;53.580;-1.666;2023-04-01T04:37:28;5.60;95.40
33988;DHT22;37428;53.580;-1.666;2023-04-01T04:40:31;5.60;95.00
33988;DHT22;37428;53.580;-1.666;2023-04-01T04:43:33;5.60;94.90
33988;DHT22;37428;53.580;-1.666;2023-04-01T04:46:36;5.60;94.90
33988;DHT22;37428;53.580;-1.666;2023-04-01T04:49:39;5.60;95.00
33988;DHT22;37428;53.580;-1.666;2023-04-01T04:52:42;5.60;95.50
33988;DHT22;37428;53.580;-1.666;2023-04-01T04:55:46;5.60;95.00
33988;DHT22;37428;53.580;-1.666;2023-04-01T04:58:48;5.50;94.40
33988;DHT22;37428;53.580;-1.666;2023-04-01T05:01:50;5.60;95.60
33988;DHT22;37428;53.580;-1.666;2023-04-01T05:04:52;5.60;95.70
33988;DHT22;37428;53.580;-1.666;2023-04-01T05:07:55;5.60;96.00
33988;DHT22;37428;53.580;-1.666;2023-04-01T05:10:58;5.50;96.10
33988;DHT22;37428;53.580;-1.666;2023-04-01T05:14:01;5.50;95.50
33988;DHT22;37428;53.580;-1.666;2023-04-01T05:17:03;5.50;95.00
33988;DHT22;37428;53.580;-1.666;2023-04-01T05:20:06;5.50;94.50
33988;DHT22;37428;53.580;-1.666;2023-04-01T05:23:08;5.40;93.90
33988;DHT22;37428;53.580;-1.666;2023-04-01T05:26:13;5.40;94.00
33988;DHT22;37428;53.580;-1.666;2023-04-01T05:29:16;5.40;93.80
33988;DHT22;37428;53.580;-1.666;2023-04-01T05:32:18;5.40;94.10
33988;DHT22;37428;53.580;-1.666;2023-04-01T05:35:20;5.40;93.80
33988;DHT22;37428;53.580;-1.666;2023-04-01T05:38:22;5.40;93.20
33988;DHT22;37428;53.580;-1.666;2023-04-01T05:41:26;5.50;94.10
33988;DHT22;37428;53.580;-1.666;2023-04-01T05:44:28;5.50;94.50
33988;DHT22;37428;53.580;-1.666;2023-04-01T05:47:30;5.50;93.90
33988;DHT22;37428;53.580;-1.666;2023-04-01T05:50:32;5.50;93.90
33988;DHT22;37428;53.580;-1.666;2023-04-01T05:53:34;5.60;93.30
33988;DHT22;37428;53.580;-1.666;2023-04-01T05:56:38;5.60;93.30
33988;DHT22;37428;53.580;-1.666;2023-04-01T05:59:40;5.60;93.40
33988;DHT22;37428;53.580;-1.666;2023-04-01T06:02:42;5.60;93.00
33988;DHT22;37428;53.580;-1.666;2023-04-01T06:05:44;5.70;93.30
33988;DHT22;37428;53.580;-1.666;2023-04-01T06:08:46;5.70;93.00
33988;DHT22;37428;53.580;-1.666;2023-04-01T06:12:16;5.70;93.00
33988;DHT22;37428;53.580;-1.666;2023-04-01T06:15:34;5.70;93.10
33988;DHT22;37428;53.580;-1.666;2023-04-01T06:18:59;5.70;93.40
33988;DHT22;37428;53.580;-1.666;2023-04-01T06:25:54;5.70;93.30
33988;DHT22;37428;53.580;-1.666;2023-04-01T06:32:59;5.70;93.20
33988;DHT22;37428;53.580;-1.666;2023-04-01T06:36:25;5.70;93.60
33988;DHT22;37428;53.580;-1.666;2023-04-01T06:39:42;5.70;93.60
33988;DHT22;37428;53.580;-1.666;2023-04-01T06:42:55;5.70;93.20
33988;DHT22;37428;53.580;-1.666;2023-04-01T06:46:09;5.70;93.40
33988;DHT22;37428;53.580;-1.666;2023-04-01T06:49:32;5.70;93.10
33988;DHT22;37428;53.580;-1.666;2023-04-01T06:52:41;5.70;93.00
33988;DHT22;37428;53.580;-1.666;2023-04-01T06:55:48;5.70;92.30
33988;DHT22;37428;53.580;-1.666;2023-04-01T06:58:54;5.80;92.70
33988;DHT22;37428;53.580;-1.666;2023-04-01T07:02:02;5.80;93.10
33988;DHT22;37428;53.580;-1.666;2023-04-01T07:05:07;5.90;92.40
33988;DHT22;37428;53.580;-1.666;2023-04-01T07:08:15;5.90;92.60
33988;DHT22;37428;53.580;-1.666;2023-04-01T07:11:24;6.00;92.40
33988;DHT22;37428;53.580;-1.666;2023-04-01T07:14:31;6.00;91.50
33988;DHT22;37428;53.580;-1.666;2023-04-01T07:17:36;5.90;91.80
33988;DHT22;37428;53.580;-1.666;2023-04-01T07:20:40;5.90;91.30
33988;DHT22;37428;53.580;-1.666;2023-04-01T07:23:45;5.90;91.70
33988;DHT22;37428;53.580;-1.666;2023-04-01T07:26:48;6.00;92.10
33988;DHT22;37428;53.580;-1.666;2023-04-01T07:29:56;5.90;91.90
33988;DHT22;37428;53.580;-1.666;2023-04-01T07:33:04;6.00;92.00
33988;DHT22;37428;53.580;-1.666;2023-04-01T07:36:14;6.00;92.00
33988;DHT22;37428;53.580;-1.666;2023-04-01T07:39:30;6.00;91.70
33988;DHT22;37428;53.580;-1.666;2023-04-01T07:42:40;6.00;91.90
33988;DHT22;37428;53.580;-1.666;2023-04-01T07:45:51;6.00;91.60
33988;DHT22;37428;53.580;-1.666;2023-04-01T07:49:02;5.90;91.50
33988;DHT22;37428;53.580;-1.666;2023-04-01T07:52:09;5.90;91.50
33988;DHT22;37428;53.580;-1.666;2023-04-01T07:55:16;5.90;91.80
33988;DHT22;37428;53.580;-1.666;2023-04-01T07:58:25;5.90;91.80
33988;DHT22;37428;53.580;-1.666;2023-04-01T08:01:40;5.90;91.80
33988;DHT22;37428;53.580;-1.666;2023-04-01T08:04:58;6.00;92.30
33988;DHT22;37428;53.580;-1.666;2023-04-01T08:08:11;6.00;92.10
33988;DHT22;37428;53.580;-1.666;2023-04-01T08:11:25;6.10;91.40
33988;DHT22;37428;53.580;-1.666;2023-04-01T08:14:35;6.20;91.10
33988;DHT22;37428;53.580;-1.666;2023-04-01T08:17:43;6.20;91.30
33988;DHT22;37428;53.580;-1.666;2023-04-01T08:20:52;6.30;90.60
33988;DHT22;37428;53.580;-1.666;2023-04-01T08:23:58;6.30;90.40
33988;DHT22;37428;53.580;-1.666;2023-04-01T08:27:05;6.40;91.00
33988;DHT22;37428;53.580;-1.666;2023-04-01T08:30:18;6.50;90.90
33988;DHT22;37428;53.580;-1.666;2023-04-01T08:33:24;6.60;90.60
33988;DHT22;37428;53.580;-1.666;2023-04-01T08:36:31;6.60;89.90
33988;DHT22;37428;53.580;-1.666;2023-04-01T08:39:36;6.70;89.00
33988;DHT22;37428;53.580;-1.666;2023-04-01T08:42:59;6.70;88.80
33988;DHT22;37428;53.580;-1.666;2023-04-01T08:46:28;6.60;87.50
33988;DHT22;37428;53.580;-1.666;2023-04-01T08:49:57;6.70;88.60
33988;DHT22;37428;53.580;-1.666;2023-04-01T08:53:07;6.70;88.30
33988;DHT22;37428;53.580;-1.666;2023-04-01T08:56:18;6.70;88.20
33988;DHT22;37428;53.580;-1.666;2023-04-01T08:59:31;6.70;88.40
33988;DHT22;37428;53.580;-1.666;2023-04-01T09:06:34;6.90;88.90
33988;DHT22;37428;53.580;-1.666;2023-04-01T09:13:24;7.00;86.70
33988;DHT22;37428;53.580;-1.666;2023-04-01T09:16:50;6.80;87.30
33988;DHT22;37428;53.580;-1.666;2023-04-01T09:20:06;6.90;88.10
33988;DHT22;37428;53.580;-1.666;2023-04-01T09:23:28;6.90;87.20
33988;DHT22;37428;53.580;-1.666;2023-04-01T09:26:53;6.90;86.40
33988;DHT22;37428;53.580;-1.666;2023-04-01T09:34:00;7.10;86.90
33988;DHT22;37428;53.580;-1.666;2023-04-01T09:37:18;7.20;85.80
33988;DHT22;37428;53.580;-1.666;2023-04-01T09:40:31;7.30;86.00
33988;DHT22;37428;53.580;-1.666;2023-04-01T09:43:49;7.40;85.30
33988;DHT22;37428;53.580;-1.666;2023-04-01T09:47:05;7.50;84.40
33988;DHT22;37428;53.580;-1.666;2023-04-01T09:50:27;7.50;83.90
33988;DHT22;37428;53.580;-1.666;2023-04-01T09:53:48;7.50;83.40
33988;DHT22;37428;53.580;-1.666;2023-04-01T09:57:30;7.50;83.90
33988;DHT22;37428;53.580;-1.666;2023-04-01T10:00:58;7.50;83.30
33988;DHT22;37428;53.580;-1.666;2023-04-01T10:04:38;7.30;83.40
33988;DHT22;37428;53.580;-1.666;2023-04-01T10:08:19;7.30;83.80
33988;DHT22;37428;53.580;-1.666;2023-04-01T10:11:45;7.20;84.60
33988;DHT22;37428;53.580;-1.666;2023-04-01T10:18:51;7.30;84.40
33988;DHT22;37428;53.580;-1.666;2023-04-01T10:26:09;7.50;84.40
33988;DHT22;37428;53.580;-1.666;2023-04-01T10:36:52;7.60;82.60
33988;DHT22;37428;53.580;-1.666;2023-04-01T10:47:55;7.30;82.60
33988;DHT22;37428;53.580;-1.666;2023-04-01T10:51:17;7.30;83.50
33988;DHT22;37428;53.580;-1.666;2023-04-01T10:54:40;7.30;83.10
33988;DHT22;37428;53.580;-1.666;2023-04-01T10:58:04;7.40;83.50
33988;DHT22;37428;53.580;-1.666;2023-04-01T11:13:15;7.60;84.10
33988;DHT22;37428;53.580;-1.666;2023-04-01T11:20:22;7.70;82.50
33988;DHT22;37428;53.580;-1.666;2023-04-01T11:27:11;7.80;81.80
33988;DHT22;37428;53.580;-1.666;2023-04-01T11:30:29;7.80;80.80
33988;DHT22;37428;53.580;-1.666;2023-04-01T11:33:40;7.80;80.30
33988;DHT22;37428;53.580;-1.666;2023-04-01T11:36:52;7.80;80.00
33988;DHT22;37428;53.580;-1.666;2023-04-01T11:40:10;7.80;79.90
33988;DHT22;37428;53.580;-1.666;2023-04-01T11:43:21;7.90;80.20
33988;DHT22;37428;53.580;-1.666;2023-04-01T11:46:33;7.90;79.80
33988;DHT22;37428;53.580;-1.666;2023-04-01T11:49:51;8.00;79.80
33988;DHT22;37428;53.580;-1.666;2023-04-01T11:53:05;7.90;80.40
33988;DHT22;37428;53.580;-1.666;2023-04-01T11:56:21;7.90;81.00
33988;DHT22;37428;53.580;-1.666;2023-04-01T11:59:41;7.80;81.40
33988;DHT22;37428;53.580;-1.666;2023-04-01T12:03:00;7.70;81.20
33988;DHT22;37428;53.580;-1.666;2023-04-01T12:06:13;7.70;81.70
33988;DHT22;37428;53.580;-1.666;2023-04-01T12:09:22;7.50;82.80
33988;DHT22;37428;53.580;-1.666;2023-04-01T12:12:35;7.40;83.30
33988;DHT22;37428;53.580;-1.666;2023-04-01T12:15:53;7.30;83.50
33988;DHT22;37428;53.580;-1.666;2023-04-01T12:19:04;7.30;84.30
33988;DHT22;37428;53.580;-1.666;2023-04-01T12:22:23;7.30;84.60
33988;DHT22;37428;53.580;-1.666;2023-04-01T12:25:52;7.40;84.10
33988;DHT22;37428;53.580;-1.666;2023-04-01T12:29:07;7.50;84.90
33988;DHT22;37428;53.580;-1.666;2023-04-01T12:32:20;7.70;83.50
33988;DHT22;37428;53.580;-1.666;2023-04-01T12:35:32;7.80;82.30
33988;DHT22;37428;53.580;-1.666;2023-04-01T12:38:47;8.00;82.60
33988;DHT22;37428;53.580;-1.666;2023-04-01T12:41:56;8.10;81.10
33988;DHT22;37428;53.580;-1.666;2023-04-01T12:45:15;8.20;80.10
33988;DHT22;37428;53.580;-1.666;2023-04-01T12:48:32;8.30;79.40
33988;DHT22;37428;53.580;-1.666;2023-04-01T12:51:58;8.40;80.20
33988;DHT22;37428;53.580;-1.666;2023-04-01T12:55:35;8.30;79.90
33988;DHT22;37428;53.580;-1.666;2023-04-01T12:58:56;8.20;82.10
33988;DHT22;37428;53.580;-1.666;2023-04-01T13:02:12;8.20;83.50
33988;DHT22;37428;53.580;-1.666;2023-04-01T13:05:39;8.20;82.40
33988;DHT22;37428;53.580;-1.666;2023-04-01T13:08:55;8.20;81.20
33988;DHT22;37428;53.580;-1.666;2023-04-01T13:12:14;8.10;81.40
33988;DHT22;37428;53.580;-1.666;2023-04-01T13:15:34;8.20;82.00
33988;DHT22;37428;53.580;-1.666;2023-04-01T13:18:45;8.20;81.40
33988;DHT22;37428;53.580;-1.666;2023-04-01T13:21:56;8.20;81.50
33988;DHT22;37428;53.580;-1.666;2023-04-01T13:25:04;8.20;80.70
33988;DHT22;37428;53.580;-1.666;2023-04-01T13:28:14;8.30;81.10
33988;DHT22;37428;53.580;-1.666;2023-04-01T13:31:31;8.40;81.70
33988;DHT22;37428;53.580;-1.666;2023-04-01T13:34:47;8.40;80.30
33988;DHT22;37428;53.580;-1.666;2023-04-01T13:41:30;8.30;80.80
33988;DHT22;37428;53.580;-1.666;2023-04-01T13:44:41;8.30;81.10
33988;DHT22;37428;53.580;-1.666;2023-04-01T13:47:59;8.30;81.40
33988;DHT22;37428;53.580;-1.666;2023-04-01T13:51:32;8.30;81.20
33988;DHT22;37428;53.580;-1.666;2023-04-01T13:54:58;8.20;81.70
33988;DHT22;37428;53.580;-1.666;2023-04-01T13:58:29;8.10;82.70
33988;DHT22;37428;53.580;-1.666;2023-04-01T14:01:39;8.10;85.30
33988;DHT22;37428;53.580;-1.666;2023-04-01T14:04:53;8.10;86.60
33988;DHT22;37428;53.580;-1.666;2023-04-01T14:08:09;8.10;86.40
33988;DHT22;37428;53.580;-1.666;2023-04-01T14:11:17;8.10;86.90
33988;DHT22;37428;53.580;-1.666;2023-04-01T14:14:33;8.10;86.60
33988;DHT22;37428;53.580;-1.666;2023-04-01T14:17:47;8.30;86.80
33988;DHT22;37428;53.580;-1.666;2023-04-01T14:21:00;8.40;87.30
33988;DHT22;37428;53.580;-1.666;2023-04-01T14:24:18;8.70;86.80
33988;DHT22;37428;53.580;-1.666;2023-04-01T14:27:38;8.70;85.00
33988;DHT22;37428;53.580;-1.666;2023-04-01T14:30:52;8.70;84.90
33988;DHT22;37428;53.580;-1.666;2023-04-01T14:34:08;8.70;84.70
33988;DHT22;37428;53.580;-1.666;2023-04-01T14:37:23;8.70;85.00
33988;DHT22;37428;53.580;-1.666;2023-04-01T14:40:28;8.70;85.30
33988;DHT22;37428;53.580;-1.666;2023-04-01T14:44:01;8.60;84.10
33988;DHT22;37428;53.580;-1.666;2023-04-01T14:50:46;8.50;84.60
33988;DHT22;37428;53.580;-1.666;2023-04-01T14:53:59;8.50;85.00
33988;DHT22;37428;53.580;-1.666;2023-04-01T14:57:09;8.50;85.20
33988;DHT22;37428;53.580;-1.666;2023-04-01T15:00:14;8.30;85.70
33988;DHT22;37428;53.580;-1.666;2023-04-01T15:03:22;8.20;86.10
33988;DHT22;37428;53.580;-1.666;2023-04-01T15:06:55;8.20;87.40
33988;DHT22;37428;53.580;-1.666;2023-04-01T15:10:02;8.10;88.50
33988;DHT22;37428;53.580;-1.666;2023-04-01T15:13:13;8.10;88.40
33988;DHT22;37428;53.580;-1.666;2023-04-01T15:16:21;8.10;87.70
33988;DHT22;37428;53.580;-1.666;2023-04-01T15:19:36;8.00;88.30
33988;DHT22;37428;53.580;-1.666;2023-04-01T15:22:49;8.00;88.10
33988;DHT22;37428;53.580;-1.666;2023-04-01T15:26:17;7.90;88.30
33988;DHT22;37428;53.580;-1.666;2023-04-01T15:29:33;7.90;88.20
33988;DHT22;37428;53.580;-1.666;2023-04-01T15:32:47;7.90;88.70
33988;DHT22;37428;53.580;-1.666;2023-04-01T15:36:00;8.00;88.80
33988;DHT22;37428;53.580;-1.666;2023-04-01T15:39:12;8.00;88.30
33988;DHT22;37428;53.580;-1.666;2023-04-01T15:42:23;7.90;88.40
33988;DHT22;37428;53.580;-1.666;2023-04-01T15:45:39;7.80;89.10
33988;DHT22;37428;53.580;-1.666;2023-04-01T15:48:56;7.80;90.00
33988;DHT22;37428;53.580;-1.666;2023-04-01T15:52:06;7.80;90.40
33988;DHT22;37428;53.580;-1.666;2023-04-01T15:55:20;7.80;90.40
33988;DHT22;37428;53.580;-1.666;2023-04-01T15:58:38;7.70;90.10
33988;DHT22;37428;53.580;-1.666;2023-04-01T16:01:47;7.70;90.70
33988;DHT22;37428;53.580;-1.666;2023-04-01T16:04:57;7.80;90.60
33988;DHT22;37428;53.580;-1.666;2023-04-01T16:08:18;7.90;89.60
33988;DHT22;37428;53.580;-1.666;2023-04-01T16:11:27;8.00;88.90
33988;DHT22;37428;53.580;-1.666;2023-04-01T16:14:39;8.00;88.70
33988;DHT22;37428;53.580;-1.666;2023-04-01T16:18:07;7.90;88.40
33988;DHT22;37428;53.580;-1.666;2023-04-01T16:21:21;7.90;88.40
33988;DHT22;37428;53.580;-1.666;2023-04-01T16:24:34;7.80;88.70
33988;DHT22;37428;53.580;-1.666;2023-04-01T16:27:42;7.80;89.00
33988;DHT22;37428;53.580;-1.666;2023-04-01T16:30:50;7.90;89.00
33988;DHT22;37428;53.580;-1.666;2023-04-01T16:34:01;7.90;88.90
33988;DHT22;37428;53.580;-1.666;2023-04-01T16:37:08;8.00;88.70
33988;DHT22;37428;53.580;-1.666;2023-04-01T16:40:24;8.00;88.90
33988;DHT22;37428;53.580;-1.666;2023-04-01T16:43:30;8.00;88.60
33988;DHT22;37428;53.580;-1.666;2023-04-01T16:46:39;8.10;88.10
33988;DHT22;37428;53.580;-1.666;2023-04-01T16:49:46;8.10;88.00
33988;DHT22;37428;53.580;-1.666;2023-04-01T16:52:59;8.10;87.50
33988;DHT22;37428;53.580;-1.666;2023-04-01T16:56:11;8.00;87.60
33988;DHT22;37428;53.580;-1.666;2023-04-01T16:59:19;8.00;87.90
33988;DHT22;37428;53.580;-1.666;2023-04-01T17:02:26;7.90;88.40
33988;DHT22;37428;53.580;-1.666;2023-04-01T17:05:43;7.90;88.50
33988;DHT22;37428;53.580;-1.666;2023-04-01T17:09:06;7.80;88.20
33988;DHT22;37428;53.580;-1.666;2023-04-01T17:12:18;7.70;88.50
33988;DHT22;37428;53.580;-1.666;2023-04-01T17:15:30;7.70;88.60
33988;DHT22;37428;53.580;-1.666;2023-04-01T17:18:40;7.70;89.00
33988;DHT22;37428;53.580;-1.666;2023-04-01T17:21:57;7.70;88.50
33988;DHT22;37428;53.580;-1.666;2023-04-01T17:25:21;7.70;89.00
33988;DHT22;37428;53.580;-1.666;2023-04-01T17:28:36;7.80;88.60
33988;DHT22;37428;53.580;-1.666;2023-04-01T17:31:46;7.70;88.30
33988;DHT22;37428;53.580;-1.666;2023-04-01T17:34:57;7.70;88.20
33988;DHT22;37428;53.580;-1.666;2023-04-01T17:38:13;7.70;88.50
33988;DHT22;37428;53.580;-1.666;2023-04-01T17:41:28;7.70;88.20
33988;DHT22;37428;53.580;-1.666;2023-04-01T17:44:44;7.60;88.50
33988;DHT22;37428;53.580;-1.666;2023-04-01T17:47:55;7.60;88.70
33988;DHT22;37428;53.580;-1.666;2023-04-01T17:51:13;7.60;89.20
33988;DHT22;37428;53.580;-1.666;2023-04-01T17:54:23;7.60;89.80
33988;DHT22;37428;53.580;-1.666;2023-04-01T17:57:39;7.60;89.80
33988;DHT22;37428;53.580;-1.666;2023-04-01T18:01:01;7.50;89.60
33988;DHT22;37428;53.580;-1.666;2023-04-01T18:04:15;7.50;89.60
33988;DHT22;37428;53.580;-1.666;2023-04-01T18:07:41;7.40;89.60
33988;DHT22;37428;53.580;-1.666;2023-04-01T18:10:56;7.40;90.00
33988;DHT22;37428;53.580;-1.666;2023-04-01T18:14:30;7.50;90.40
33988;DHT22;37428;53.580;-1.666;2023-04-01T18:17:47;7.60;90.40
33988;DHT22;37428;53.580;-1.666;2023-04-01T18:20:58;7.50;90.50
33988;DHT22;37428;53.580;-1.666;2023-04-01T18:24:10;7.50;90.30
33988;DHT22;37428;53.580;-1.666;2023-04-01T18:27:17;7.40;90.30
33988;DHT22;37428;53.580;-1.666;2023-04-01T18:30:26;7.40;90.60
33988;DHT22;37428;53.580;-1.666;2023-04-01T18:33:36;7.40;90.60
33988;DHT22;37428;53.580;-1.666;2023-04-01T18:36:46;7.40;90.70
33988;DHT22;37428;53.580;-1.666;2023-04-01T18:39:52;7.40;90.50
33988;DHT22;37428;53.580;-1.666;2023-04-01T18:43:02;7.40;91.10
33988;DHT22;37428;53.580;-1.666;2023-04-01T18:46:16;7.40;91.50
33988;DHT22;37428;53.580;-1.666;2023-04-01T18:49:27;7.30;91.10
33988;DHT22;37428;53.580;-1.666;2023-04-01T18:52:34;7.30;91.10
33988;DHT22;37428;53.580;-1.666;2023-04-01T18:55:40;7.30;91.00
33988;DHT22;37428;53.580;-1.666;2023-04-01T18:58:47;7.30;91.00
33988;DHT22;37428;53.580;-1.666;2023-04-01T19:02:00;7.30;91.20
33988;DHT22;37428;53.580;-1.666;2023-04-01T19:05:10;7.30;90.70
33988;DHT22;37428;53.580;-1.666;2023-04-01T19:08:19;7.30;91.00
33988;DHT22;37428;53.580;-1.666;2023-04-01T19:11:27;7.20;91.00
33988;DHT22;37428;53.580;-1.666;2023-04-01T19:14:46;7.20;91.20
33988;DHT22;37428;53.580;-1.666;2023-04-01T19:18:07;7.20;91.50
33988;DHT22;37428;53.580;-1.666;2023-04-01T19:21:18;7.20;91.60
33988;DHT22;37428;53.580;-1.666;2023-04-01T19:24:39;7.20;91.90
33988;DHT22;37428;53.580;-1.666;2023-04-01T19:27:48;7.20;91.90
33988;DHT22;37428;53.580;-1.666;2023-04-01T19:30:54;7.30;91.80
33988;DHT22;37428;53.580;-1.666;2023-04-01T19:34:07;7.20;91.30
33988;DHT22;37428;53.580;-1.666;2023-04-01T19:37:26;7.20;91.70
33988;DHT22;37428;53.580;-1.666;2023-04-01T19:40:41;7.30;92.10
33988;DHT22;37428;53.580;-1.666;2023-04-01T19:43:52;7.30;92.30
33988;DHT22;37428;53.580;-1.666;2023-04-01T19:47:00;7.30;92.80
33988;DHT22;37428;53.580;-1.666;2023-04-01T19:50:15;7.30;92.50
33988;DHT22;37428;53.580;-1.666;2023-04-01T19:53:25;7.20;92.20
33988;DHT22;37428;53.580;-1.666;2023-04-01T19:56:36;7.20;92.40
33988;DHT22;37428;53.580;-1.666;2023-04-01T19:59:47;7.10;92.20
33988;DHT22;37428;53.580;-1.666;2023-04-01T20:02:59;7.10;92.30
33988;DHT22;37428;53.580;-1.666;2023-04-01T20:06:11;7.20;92.00
33988;DHT22;37428;53.580;-1.666;2023-04-01T20:09:41;7.10;92.10
33988;DHT22;37428;53.580;-1.666;2023-04-01T20:12:52;7.20;91.90
33988;DHT22;37428;53.580;-1.666;2023-04-01T20:16:01;7.10;91.80
33988;DHT22;37428;53.580;-1.666;2023-04-01T20:19:04;7.10;91.90
33988;DHT22;37428;53.580;-1.666;2023-04-01T20:22:19;7.10;91.60
33988;DHT22;37428;53.580;-1.666;2023-04-01T20:25:31;7.10;92.20
33988;DHT22;37428;53.580;-1.666;2023-04-01T20:28:42;7.10;92.10
33988;DHT22;37428;53.580;-1.666;2023-04-01T20:31:50;7.10;92.10
33988;DHT22;37428;53.580;-1.666;2023-04-01T20:42:23;7.00;92.00
33988;DHT22;37428;53.580;-1.666;2023-04-01T20:45:33;7.10;91.80
33988;DHT22;37428;53.580;-1.666;2023-04-01T20:52:25;7.00;91.90
33988;DHT22;37428;53.580;-1.666;2023-04-01T20:59:15;7.00;91.70
33988;DHT22;37428;53.580;-1.666;2023-04-01T21:02:48;7.00;91.90
33988;DHT22;37428;53.580;-1.666;2023-04-01T21:06:10;7.10;91.80
33988;DHT22;37428;53.580;-1.666;2023-04-01T21:09:29;7.00;91.50
33988;DHT22;37428;53.580;-1.666;2023-04-01T21:12:45;7.00;91.70
33988;DHT22;37428;53.580;-1.666;2023-04-01T21:15:59;7.10;92.00
33988;DHT22;37428;53.580;-1.666;2023-04-01T21:19:17;7.00;91.80
33988;DHT22;37428;53.580;-1.666;2023-04-01T21:22:32;7.00;92.00
33988;DHT22;37428;53.580;-1.666;2023-04-01T21:25:49;7.00;92.20
33988;DHT22;37428;53.580;-1.666;2023-04-01T21:32:51;7.10;92.40